createdAt,value
2019-05-25T00:00:54.791Z,15.50
2019-05-25T00:03:23.289Z,15.50
2019-05-25T00:05:51.704Z,15.40
2019-05-25T00:08:20.210Z,15.40
2019-05-25T00:10:48.630Z,15.30
2019-05-25T00:13:17.118Z,15.20
2019-05-25T00:15:45.554Z,15.10
2019-05-25T00:18:13.977Z,15.10
2019-05-25T00:20:42.400Z,15.10
2019-05-25T00:23:10.846Z,15.00
2019-05-25T00:25:39.280Z,15.00
2019-05-25T00:28:07.742Z,15.00
2019-05-25T00:30:36.357Z,15.00
2019-05-25T00:33:04.907Z,15.00
2019-05-25T00:35:33.748Z,14.90
2019-05-25T00:38:02.305Z,14.90
2019-05-25T00:40:30.795Z,14.90
2019-05-25T00:42:59.212Z,15.00
2019-05-25T00:45:27.757Z,15.00
2019-05-25T00:47:56.172Z,15.10
2019-05-25T00:50:24.699Z,15.20
2019-05-25T00:52:53.106Z,15.10
2019-05-25T00:55:21.674Z,15.10
2019-05-25T00:57:50.150Z,15.00
2019-05-25T01:00:18.720Z,14.90
2019-05-25T01:02:47.163Z,14.90
2019-05-25T01:05:16.018Z,14.90
2019-05-25T01:07:44.427Z,14.90
2019-05-25T01:10:13.989Z,15.00
2019-05-25T01:12:42.415Z,15.00
2019-05-25T01:15:11.656Z,14.90
2019-05-25T01:17:40.137Z,14.80
2019-05-25T01:20:10.683Z,14.80
2019-05-25T01:22:39.532Z,14.70
2019-05-25T01:25:08.575Z,14.60
2019-05-25T01:27:37.053Z,14.60
2019-05-25T01:30:08.804Z,14.60
2019-05-25T01:32:37.378Z,14.70
2019-05-25T01:35:06.334Z,14.70
2019-05-25T01:37:34.905Z,14.70
2019-05-25T01:40:04.671Z,14.70
2019-05-25T01:42:33.155Z,14.60
2019-05-25T01:45:01.645Z,14.50
2019-05-25T01:47:30.058Z,14.50
2019-05-25T01:49:58.493Z,14.40
2019-05-25T01:52:26.930Z,14.30
2019-05-25T01:54:59.803Z,14.30
2019-05-25T01:57:25.477Z,14.20
2019-05-25T01:59:53.911Z,14.30
2019-05-25T02:02:22.396Z,14.20
2019-05-25T02:04:50.802Z,14.20
2019-05-25T02:07:19.586Z,14.20
2019-05-25T02:09:47.988Z,14.10
2019-05-25T02:12:16.447Z,14.00
2019-05-25T02:14:44.842Z,13.90
2019-05-25T02:17:13.268Z,13.90
2019-05-25T02:19:41.672Z,13.90
2019-05-25T02:22:10.098Z,13.90
2019-05-25T02:24:38.516Z,13.90
2019-05-25T02:27:06.941Z,13.90
2019-05-25T02:29:35.376Z,13.80
2019-05-25T02:32:04.229Z,13.80
2019-05-25T02:34:32.796Z,13.70
2019-05-25T02:37:01.468Z,13.70
2019-05-25T02:39:30.236Z,13.70
2019-05-25T02:41:58.935Z,13.70
2019-05-25T02:44:27.406Z,13.70
2019-05-25T02:46:55.856Z,13.70
2019-05-25T02:49:24.291Z,13.60
2019-05-25T02:51:52.732Z,13.60
2019-05-25T02:54:21.141Z,13.60
2019-05-25T02:56:49.557Z,13.50
2019-05-25T02:59:17.987Z,13.40
2019-05-25T03:01:46.412Z,13.30
2019-05-25T03:04:16.918Z,13.30
2019-05-25T03:06:45.530Z,13.20
2019-05-25T03:09:15.386Z,13.20
2019-05-25T03:11:43.969Z,13.20
2019-05-25T03:14:12.394Z,13.20
2019-05-25T03:16:40.827Z,13.20
2019-05-25T03:19:09.228Z,13.20
2019-05-25T03:21:37.652Z,13.10
2019-05-25T03:24:06.113Z,13.10
2019-05-25T03:26:34.564Z,13.20
2019-05-25T03:29:02.982Z,13.10
2019-05-25T03:31:31.404Z,13.00
2019-05-25T03:34:00.149Z,13.00
2019-05-25T03:36:28.611Z,13.00
2019-05-25T03:38:57.050Z,13.00
2019-05-25T03:41:25.776Z,13.00
2019-05-25T03:43:54.188Z,13.00
2019-05-25T03:46:22.600Z,13.00
2019-05-25T03:48:51.037Z,13.00
2019-05-25T03:51:19.528Z,13.00
2019-05-25T03:53:47.999Z,13.10
2019-05-25T03:56:16.403Z,13.10
2019-05-25T03:58:44.832Z,13.10
2019-05-25T04:01:13.272Z,13.10
2019-05-25T04:03:41.685Z,13.20
2019-05-25T04:06:10.093Z,13.20
2019-05-25T04:08:38.520Z,13.30
2019-05-25T04:11:07.022Z,13.30
2019-05-25T04:13:35.443Z,13.20
2019-05-25T04:16:03.885Z,13.20
2019-05-25T04:18:32.377Z,13.10
2019-05-25T04:21:00.861Z,13.00
2019-05-25T04:23:29.306Z,13.00
2019-05-25T04:25:57.718Z,13.00
2019-05-25T04:28:26.136Z,13.10
2019-05-25T04:30:54.950Z,13.20
2019-05-25T04:33:23.385Z,13.30
2019-05-25T04:35:52.096Z,13.30
2019-05-25T04:38:20.512Z,13.40
2019-05-25T04:40:48.937Z,13.50
2019-05-25T04:43:17.369Z,13.50
2019-05-25T04:45:45.761Z,13.60
2019-05-25T04:48:14.195Z,13.60
2019-05-25T04:50:42.608Z,13.70
2019-05-25T04:53:11.043Z,13.80
2019-05-25T04:55:39.474Z,13.80
2019-05-25T04:58:07.898Z,14.00
2019-05-25T05:00:36.324Z,13.90
2019-05-25T05:03:04.814Z,14.00
2019-05-25T05:05:33.243Z,14.00
2019-05-25T05:08:01.752Z,14.10
2019-05-25T05:10:31.776Z,14.20
2019-05-25T05:13:00.196Z,14.30
2019-05-25T05:15:28.614Z,14.40
2019-05-25T05:17:57.060Z,14.60
2019-05-25T05:20:25.472Z,14.70
2019-05-25T05:22:53.938Z,14.90
2019-05-25T05:25:22.373Z,15.20
2019-05-25T05:27:50.774Z,15.60
2019-05-25T05:30:22.291Z,16.00
2019-05-25T05:32:50.809Z,16.30
2019-05-25T05:35:19.368Z,16.70
2019-05-25T05:37:48.173Z,17.00
2019-05-25T05:40:16.757Z,17.20
2019-05-25T05:42:48.314Z,17.40
2019-05-25T05:45:16.987Z,17.60
2019-05-25T05:47:48.034Z,17.70
2019-05-25T05:50:18.055Z,17.80
2019-05-25T05:52:50.734Z,17.80
2019-05-25T05:55:22.560Z,18.00
2019-05-25T05:57:50.972Z,18.20
2019-05-25T06:00:20.608Z,18.50
2019-05-25T06:02:49.072Z,18.70
2019-05-25T06:05:17.503Z,19.00
2019-05-25T06:07:45.943Z,19.40
2019-05-25T06:10:14.500Z,19.60
2019-05-25T06:12:42.961Z,19.80
2019-05-25T06:15:12.024Z,19.70
2019-05-25T06:17:40.652Z,19.40
2019-05-25T06:20:09.530Z,19.50
2019-05-25T06:22:38.010Z,19.70
2019-05-25T06:25:08.837Z,20.00
2019-05-25T06:27:37.334Z,20.20
2019-05-25T06:30:07.042Z,20.40
2019-05-25T06:32:35.470Z,20.50
2019-05-25T06:35:05.784Z,20.60
2019-05-25T06:37:34.222Z,20.60
2019-05-25T06:40:03.111Z,20.70
2019-05-25T06:42:31.655Z,20.60
2019-05-25T06:45:00.097Z,20.70
2019-05-25T06:47:28.508Z,21.00
2019-05-25T06:49:56.917Z,21.10
2019-05-25T06:52:25.321Z,21.10
2019-05-25T06:54:53.731Z,21.20
2019-05-25T06:57:22.210Z,21.20
2019-05-25T06:59:50.641Z,21.30
2019-05-25T07:02:22.485Z,21.50
2019-05-25T07:04:49.238Z,21.50
2019-05-25T07:07:17.643Z,21.60
2019-05-25T07:09:46.074Z,21.80
2019-05-25T07:12:14.497Z,21.90
2019-05-25T07:14:43.227Z,22.00
2019-05-25T07:17:11.687Z,22.10
2019-05-25T07:19:40.600Z,22.40
2019-05-25T07:22:09.277Z,22.50
2019-05-25T07:24:37.700Z,22.70
2019-05-25T07:27:06.180Z,23.00
2019-05-25T07:29:34.615Z,23.50
2019-05-25T07:32:03.069Z,23.80
2019-05-25T07:34:31.770Z,24.30
2019-05-25T07:37:00.251Z,24.20
2019-05-25T07:39:28.716Z,24.60
2019-05-25T07:41:57.223Z,24.70
2019-05-25T07:44:25.730Z,24.50
2019-05-25T07:46:54.517Z,25.10
2019-05-25T07:49:22.947Z,25.50
2019-05-25T07:51:51.697Z,25.80
2019-05-25T07:54:20.105Z,25.90
2019-05-25T07:56:48.534Z,26.10
2019-05-25T07:59:16.944Z,25.90
2019-05-25T08:01:45.443Z,25.80
2019-05-25T08:04:13.918Z,25.50
2019-05-25T08:06:45.014Z,25.50
2019-05-25T08:09:13.419Z,25.90
2019-05-25T08:11:41.840Z,26.30
2019-05-25T08:14:10.247Z,26.00
2019-05-25T08:16:38.745Z,26.20
2019-05-25T08:19:07.607Z,26.40
2019-05-25T08:21:36.177Z,26.40
2019-05-25T08:24:04.645Z,26.50
2019-05-25T08:26:33.268Z,26.70
2019-05-25T08:29:01.677Z,27.00
2019-05-25T08:31:30.110Z,27.50
2019-05-25T08:33:58.501Z,27.80
2019-05-25T08:36:29.669Z,27.90
2019-05-25T08:38:57.071Z,27.70
2019-05-25T08:41:25.487Z,27.40
2019-05-25T08:43:54.080Z,27.10
2019-05-25T08:46:22.513Z,26.80
2019-05-25T08:48:50.914Z,26.30
2019-05-25T08:51:19.379Z,25.90
2019-05-25T08:53:47.773Z,25.60
2019-05-25T08:56:16.220Z,25.30
2019-05-25T08:58:48.497Z,25.10
2019-05-25T09:01:14.830Z,25.00
2019-05-25T09:03:43.253Z,24.80
2019-05-25T09:06:11.722Z,24.60
2019-05-25T09:08:40.179Z,24.40
2019-05-25T09:11:09.328Z,24.30
2019-05-25T09:13:37.787Z,24.20
2019-05-25T09:16:06.840Z,24.00
2019-05-25T09:18:35.248Z,23.90
2019-05-25T09:21:03.800Z,23.90
2019-05-25T09:23:32.192Z,23.70
2019-05-25T09:26:00.882Z,23.80
2019-05-25T09:28:29.443Z,23.80
2019-05-25T09:30:57.846Z,24.00
2019-05-25T09:33:26.252Z,24.00
2019-05-25T09:35:54.667Z,24.20
2019-05-25T09:38:23.081Z,24.40
2019-05-25T09:40:51.667Z,24.40
2019-05-25T09:43:21.088Z,24.40
2019-05-25T09:45:49.492Z,24.60
2019-05-25T09:48:18.000Z,24.70
2019-05-25T09:50:46.835Z,24.60
2019-05-25T09:53:15.272Z,24.30
2019-05-25T09:55:43.747Z,24.10
2019-05-25T09:58:12.177Z,24.10
2019-05-25T10:00:40.791Z,24.10
2019-05-25T10:03:09.314Z,24.00
2019-05-25T10:05:37.710Z,23.80
2019-05-25T10:08:06.167Z,23.50
2019-05-25T10:10:34.635Z,23.50
2019-05-25T10:13:03.132Z,23.30
2019-05-25T10:15:31.572Z,23.10
2019-05-25T10:18:00.092Z,22.90
2019-05-25T10:20:28.523Z,22.60
2019-05-25T10:22:57.075Z,22.40
2019-05-25T10:25:25.543Z,22.40
2019-05-25T10:27:54.057Z,22.10
2019-05-25T10:30:22.800Z,21.80
2019-05-25T10:32:51.196Z,21.70
2019-05-25T10:35:19.763Z,21.70
2019-05-25T10:37:48.267Z,21.60
2019-05-25T10:40:17.661Z,21.30
2019-05-25T10:42:46.074Z,21.20
2019-05-25T10:45:14.834Z,20.90
2019-05-25T10:47:43.253Z,20.80
2019-05-25T10:50:11.996Z,20.90
2019-05-25T10:52:40.477Z,20.90
2019-05-25T10:55:10.270Z,21.00
2019-05-25T10:57:39.123Z,21.00
2019-05-25T11:00:10.563Z,21.20
2019-05-25T11:02:39.280Z,21.40
2019-05-25T11:05:08.512Z,21.80
2019-05-25T11:07:37.018Z,22.10
2019-05-25T11:10:07.953Z,22.50
2019-05-25T11:12:36.441Z,22.90
2019-05-25T11:15:07.761Z,23.10
2019-05-25T11:17:36.987Z,23.20
2019-05-25T11:20:10.336Z,23.20
2019-05-25T11:22:38.752Z,23.10
2019-05-25T11:25:08.126Z,23.20
2019-05-25T11:27:36.518Z,23.00
2019-05-25T11:30:10.010Z,23.10
2019-05-25T11:32:38.961Z,23.20
2019-05-25T11:35:08.220Z,23.10
2019-05-25T11:37:36.691Z,22.80
2019-05-25T11:40:07.458Z,22.80
2019-05-25T11:42:35.903Z,22.90
2019-05-25T11:45:06.468Z,22.90
2019-05-25T11:47:34.865Z,23.00
2019-05-25T11:50:05.332Z,23.10
2019-05-25T11:52:34.459Z,23.20
2019-05-25T11:55:03.667Z,23.10
2019-05-25T11:57:32.313Z,23.00
2019-05-25T12:00:00.735Z,22.80
2019-05-25T12:02:29.133Z,22.80
2019-05-25T12:04:57.566Z,22.70
2019-05-25T12:07:25.985Z,22.70
2019-05-25T12:09:54.761Z,22.70
2019-05-25T12:12:23.533Z,22.90
2019-05-25T12:14:51.961Z,23.10
2019-05-25T12:17:20.374Z,23.40
2019-05-25T12:19:48.819Z,23.50
2019-05-25T12:22:17.247Z,23.70
2019-05-25T12:24:45.768Z,23.70
2019-05-25T12:27:14.190Z,23.70
2019-05-25T12:29:42.674Z,23.70
2019-05-25T12:32:11.216Z,23.60
2019-05-25T12:34:39.641Z,23.70
2019-05-25T12:37:08.048Z,23.60
2019-05-25T12:39:36.444Z,23.50
2019-05-25T12:42:05.410Z,23.60
2019-05-25T12:44:34.613Z,23.70
2019-05-25T12:47:03.171Z,23.60
2019-05-25T12:49:48.497Z,23.60
2019-05-25T12:52:01.696Z,23.50
2019-05-25T12:54:30.144Z,23.60
2019-05-25T12:56:58.639Z,23.50
2019-05-25T12:59:27.128Z,23.50
2019-05-25T13:01:55.612Z,23.60
2019-05-25T13:04:24.010Z,23.60
2019-05-25T13:06:52.779Z,23.70
2019-05-25T13:09:21.248Z,23.90
2019-05-25T13:11:49.702Z,24.10
2019-05-25T13:14:18.110Z,24.30
2019-05-25T13:16:46.532Z,24.50
2019-05-25T13:19:14.936Z,24.70
2019-05-25T13:21:43.436Z,24.70
2019-05-25T13:24:11.846Z,24.80
2019-05-25T13:26:40.325Z,24.80
2019-05-25T13:29:08.801Z,24.70
2019-05-25T13:31:37.197Z,24.60
2019-05-25T13:34:05.617Z,24.60
2019-05-25T13:36:34.031Z,24.60
2019-05-25T13:39:02.506Z,24.50
2019-05-25T13:41:31.012Z,24.50
2019-05-25T13:43:59.517Z,24.60
2019-05-25T13:46:27.941Z,24.50
2019-05-25T13:48:56.366Z,24.40
2019-05-25T13:51:24.782Z,24.50
2019-05-25T13:53:53.199Z,24.50
2019-05-25T13:56:21.593Z,24.70
2019-05-25T13:58:50.064Z,24.60
2019-05-25T14:01:27.834Z,24.60
2019-05-25T14:03:48.613Z,24.40
2019-05-25T14:06:17.025Z,24.40
2019-05-25T14:08:45.497Z,24.30
2019-05-25T14:11:13.917Z,24.40
2019-05-25T14:13:42.328Z,24.40
2019-05-25T14:16:11.488Z,24.30
2019-05-25T14:18:39.913Z,24.30
2019-05-25T14:21:08.373Z,24.30
2019-05-25T14:23:36.778Z,24.30
2019-05-25T14:26:05.617Z,24.30
2019-05-25T14:28:34.025Z,24.20
2019-05-25T14:31:02.461Z,23.60
2019-05-25T14:33:31.123Z,23.00
2019-05-25T14:35:59.541Z,22.50
2019-05-25T14:38:28.819Z,22.20
2019-05-25T14:40:57.480Z,21.90
2019-05-25T14:43:25.905Z,21.60
2019-05-25T14:45:54.300Z,21.50
2019-05-25T14:48:22.757Z,21.50
2019-05-25T14:50:51.246Z,21.40
2019-05-25T14:53:19.666Z,21.20
2019-05-25T14:55:48.067Z,21.20
2019-05-25T14:58:16.497Z,21.10
2019-05-25T15:00:44.923Z,21.00
2019-05-25T15:03:13.408Z,21.00
2019-05-25T15:05:41.845Z,21.10
2019-05-25T15:08:10.268Z,21.20
2019-05-25T15:10:38.766Z,21.30
2019-05-25T15:13:07.174Z,21.30
2019-05-25T15:15:35.645Z,21.20
2019-05-25T15:18:04.075Z,21.30
2019-05-25T15:20:32.575Z,21.20
2019-05-25T15:23:01.100Z,21.10
2019-05-25T15:25:29.548Z,21.00
2019-05-25T15:27:58.153Z,20.90
2019-05-25T15:30:26.648Z,20.90
2019-05-25T15:32:55.193Z,20.80
2019-05-25T15:35:23.597Z,20.80
2019-05-25T15:37:52.069Z,20.70
2019-05-25T15:40:21.408Z,20.80
2019-05-25T15:42:49.826Z,20.80
2019-05-25T15:45:18.437Z,20.80
2019-05-25T15:47:46.977Z,20.90
2019-05-25T15:50:16.515Z,21.00
2019-05-25T15:52:44.925Z,20.80
2019-05-25T15:55:13.408Z,20.50
2019-05-25T15:57:41.820Z,20.20
2019-05-25T16:00:11.773Z,20.20
2019-05-25T16:02:40.357Z,20.10
2019-05-25T16:05:10.154Z,20.00
2019-05-25T16:07:41.658Z,20.10
2019-05-25T16:10:10.402Z,20.10
2019-05-25T16:12:38.965Z,20.20
2019-05-25T16:15:09.004Z,20.10
2019-05-25T16:17:38.456Z,20.30
2019-05-25T16:20:07.588Z,20.40
2019-05-25T16:22:36.001Z,20.40
2019-05-25T16:25:08.580Z,20.40
2019-05-25T16:27:36.976Z,20.50
2019-05-25T16:30:07.596Z,20.60
2019-05-25T16:33:07.018Z,20.70
2019-05-25T16:35:07.062Z,20.50
2019-05-25T16:37:35.933Z,20.60
2019-05-25T16:40:06.788Z,20.60
2019-05-25T16:42:35.602Z,20.60
2019-05-25T16:45:08.662Z,20.80
2019-05-25T16:47:37.412Z,20.80
2019-05-25T16:50:08.441Z,20.70
2019-05-25T16:52:36.871Z,20.80
2019-05-25T16:55:06.934Z,20.60
2019-05-25T16:57:35.390Z,20.60
2019-05-25T17:00:06.028Z,20.60
2019-05-25T17:02:34.593Z,20.60
2019-05-25T17:05:02.993Z,20.50
2019-05-25T17:07:31.386Z,20.50
2019-05-25T17:10:00.194Z,20.40
2019-05-25T17:12:28.607Z,20.30
2019-05-25T17:14:57.030Z,20.20
2019-05-25T17:17:25.488Z,20.00
2019-05-25T17:19:54.196Z,19.90
2019-05-25T17:22:22.671Z,19.80
2019-05-25T17:24:51.260Z,19.70
2019-05-25T17:27:20.139Z,19.60
2019-05-25T17:29:48.670Z,19.40
2019-05-25T17:32:17.110Z,19.20
2019-05-25T17:34:45.711Z,19.10
2019-05-25T17:37:14.194Z,18.90
2019-05-25T17:39:42.622Z,18.80
2019-05-25T17:42:11.042Z,18.80
2019-05-25T17:44:39.455Z,18.80
2019-05-25T17:47:07.958Z,18.90
2019-05-25T17:49:36.369Z,18.80
2019-05-25T17:52:04.932Z,18.90
2019-05-25T17:54:33.344Z,19.00
2019-05-25T17:57:02.135Z,19.00
2019-05-25T17:59:30.695Z,19.00
2019-05-25T18:01:59.253Z,19.00
2019-05-25T18:04:28.061Z,18.90
2019-05-25T18:06:56.471Z,18.80
2019-05-25T18:09:24.992Z,18.80
2019-05-25T18:11:53.406Z,18.70
2019-05-25T18:14:21.813Z,18.60
2019-05-25T18:16:50.369Z,18.50
2019-05-25T18:19:18.887Z,18.50
2019-05-25T18:21:47.321Z,18.50
2019-05-25T18:24:15.947Z,18.40
2019-05-25T18:26:44.494Z,18.40
2019-05-25T18:29:13.195Z,18.40
2019-05-25T18:31:41.601Z,18.50
2019-05-25T18:34:21.683Z,18.60
2019-05-25T18:36:40.174Z,18.60
2019-05-25T18:39:08.589Z,18.70
2019-05-25T18:41:37.040Z,18.70
2019-05-25T18:44:05.463Z,18.70
2019-05-25T18:46:33.952Z,18.80
2019-05-25T18:49:02.362Z,18.80
2019-05-25T18:51:31.719Z,18.80
2019-05-25T18:54:00.139Z,18.80
2019-05-25T18:56:28.562Z,18.70
2019-05-25T18:58:56.987Z,18.80
2019-05-25T19:01:25.397Z,18.70
2019-05-25T19:03:53.816Z,18.70
2019-05-25T19:06:22.317Z,18.70
2019-05-25T19:08:50.805Z,18.70
2019-05-25T19:11:19.542Z,18.70
2019-05-25T19:13:47.974Z,18.60
2019-05-25T19:16:16.382Z,18.60
2019-05-25T19:18:44.780Z,18.60
2019-05-25T19:21:13.201Z,18.60
2019-05-25T19:23:42.563Z,18.50
2019-05-25T19:26:11.349Z,18.50
2019-05-25T19:28:39.829Z,18.50
2019-05-25T19:31:08.236Z,18.50
2019-05-25T19:33:36.705Z,18.50
2019-05-25T19:36:05.276Z,18.50
2019-05-25T19:38:33.701Z,18.50
2019-05-25T19:41:02.145Z,18.40
2019-05-25T19:43:30.946Z,18.50
2019-05-25T19:45:59.380Z,18.40
2019-05-25T19:48:27.789Z,18.50
2019-05-25T19:50:56.532Z,18.40
2019-05-25T19:53:25.066Z,18.40
2019-05-25T19:55:53.504Z,18.40
2019-05-25T19:58:21.914Z,18.40
2019-05-25T20:00:50.352Z,18.40
2019-05-25T20:03:18.880Z,18.40
2019-05-25T20:05:47.311Z,18.40
2019-05-25T20:08:15.716Z,18.40
2019-05-25T20:10:44.171Z,18.40
2019-05-25T20:13:12.577Z,18.40
2019-05-25T20:15:41.023Z,18.40
2019-05-25T20:18:09.420Z,18.40
2019-05-25T20:20:37.846Z,18.40
2019-05-25T20:23:08.734Z,18.30
2019-05-25T20:25:37.178Z,18.20
2019-05-25T20:28:07.137Z,18.20
2019-05-25T20:30:35.574Z,18.10
2019-05-25T20:33:04.086Z,18.10
2019-05-25T20:35:33.731Z,18.10
2019-05-25T20:38:02.997Z,18.10
2019-05-25T20:40:31.468Z,18.10
2019-05-25T20:42:59.970Z,18.10
2019-05-25T20:45:28.738Z,18.00
2019-05-25T20:47:57.253Z,17.90
2019-05-25T20:50:25.649Z,17.80
2019-05-25T20:52:54.097Z,17.70
2019-05-25T20:55:22.489Z,17.70
2019-05-25T20:57:51.366Z,17.60
2019-05-25T21:00:23.822Z,17.70
2019-05-25T21:03:04.613Z,17.70
2019-05-25T21:05:20.216Z,17.70
2019-05-25T21:07:48.729Z,17.60
2019-05-25T21:10:17.485Z,17.60
2019-05-25T21:12:46.019Z,17.40
2019-05-25T21:15:15.343Z,17.40
2019-05-25T21:17:43.828Z,17.40
2019-05-25T21:20:12.517Z,17.40
2019-05-25T21:22:41.001Z,17.40
2019-05-25T21:25:10.428Z,17.40
2019-05-25T21:27:38.873Z,17.30
2019-05-25T21:30:09.585Z,17.30
2019-05-25T21:32:38.120Z,17.40
2019-05-25T21:35:06.978Z,17.30
2019-05-25T21:37:35.435Z,17.20
2019-05-25T21:40:06.500Z,17.20
2019-05-25T21:42:34.920Z,17.20
2019-05-25T21:45:03.678Z,17.10
2019-05-25T21:47:32.485Z,17.10
2019-05-25T21:50:00.885Z,17.00
2019-05-25T21:52:29.417Z,16.90
2019-05-25T21:54:57.844Z,16.90
2019-05-25T21:57:26.382Z,16.90
2019-05-25T21:59:54.834Z,16.90
2019-05-25T22:02:23.390Z,16.90
2019-05-25T22:04:51.874Z,16.90
2019-05-25T22:07:20.377Z,16.90
2019-05-25T22:09:48.785Z,17.00
2019-05-25T22:12:17.197Z,16.90
2019-05-25T22:14:45.636Z,16.90
2019-05-25T22:17:14.056Z,16.90
2019-05-25T22:19:42.516Z,17.00
2019-05-25T22:22:10.989Z,16.90
2019-05-25T22:24:39.443Z,16.80
2019-05-25T22:27:07.933Z,16.80
2019-05-25T22:29:36.338Z,16.90
2019-05-25T22:32:04.833Z,16.90
2019-05-25T22:34:33.285Z,16.90
2019-05-25T22:37:01.704Z,16.90
2019-05-25T22:39:30.136Z,16.90
2019-05-25T22:41:58.561Z,16.80
2019-05-25T22:44:27.335Z,16.80
2019-05-25T22:46:56.017Z,16.80
2019-05-25T22:49:24.405Z,16.80
2019-05-25T22:51:52.840Z,16.70
2019-05-25T22:54:21.248Z,16.70
2019-05-25T22:56:49.714Z,16.60
2019-05-25T22:59:18.134Z,16.60
2019-05-25T23:01:46.850Z,16.70
2019-05-25T23:04:15.344Z,16.60
2019-05-25T23:06:56.990Z,16.70
2019-05-25T23:09:13.995Z,16.60
2019-05-25T23:11:42.406Z,16.60
2019-05-25T23:14:10.934Z,16.60
2019-05-25T23:16:39.348Z,16.70
2019-05-25T23:19:07.794Z,16.70
2019-05-25T23:21:36.213Z,16.70
2019-05-25T23:24:04.688Z,16.60
2019-05-25T23:26:33.173Z,16.70
2019-05-25T23:29:01.621Z,16.70
2019-05-25T23:31:30.105Z,16.60
2019-05-25T23:33:58.778Z,16.70
2019-05-25T23:36:27.168Z,16.60
2019-05-25T23:38:55.675Z,16.60
2019-05-25T23:41:24.130Z,16.50
2019-05-25T23:43:52.552Z,16.40
2019-05-25T23:46:21.010Z,16.40
2019-05-25T23:48:49.775Z,16.30
2019-05-25T23:51:18.257Z,16.40
2019-05-25T23:53:46.665Z,16.40
2019-05-25T23:56:15.100Z,16.40
2019-05-25T23:58:43.658Z,16.50
